createdAt,value
2022-09-24T09:41:22.504Z,7.68
2022-09-24T09:47:33.046Z,7.18
2022-09-24T09:53:36.513Z,7.22
2022-09-24T09:59:41.328Z,4.70
2022-09-24T10:05:44.759Z,4.18
2022-09-24T10:11:48.308Z,2.28
2022-09-24T10:17:54.829Z,1.90
2022-09-24T10:24:01.090Z,1.85
2022-09-24T10:30:24.112Z,1.80
2022-09-24T10:36:30.077Z,2.03
2022-09-24T10:42:33.443Z,1.80
2022-09-24T10:48:39.312Z,1.67
2022-09-24T10:54:50.326Z,1.38
2022-09-24T11:01:00.021Z,1.30
2022-09-24T11:07:21.076Z,1.20
2022-09-24T11:13:30.692Z,1.13
2022-09-24T11:19:44.903Z,1.20
2022-09-24T11:25:50.881Z,1.45
2022-09-24T11:32:06.554Z,1.40
2022-09-24T11:38:11.271Z,1.40
2022-09-24T11:44:23.471Z,1.40
2022-09-24T11:50:32.697Z,1.23
2022-09-24T11:56:39.418Z,2.33
2022-09-24T12:02:45.703Z,1.30
2022-09-24T12:08:53.498Z,1.80
2022-09-24T12:14:59.413Z,1.20
2022-09-24T12:21:04.712Z,1.13
2022-09-24T12:27:14.254Z,1.30
2022-09-24T12:33:21.091Z,1.25
2022-09-24T12:39:25.908Z,1.38
2022-09-24T12:45:31.100Z,1.00
2022-09-24T12:51:38.564Z,1.00
2022-09-24T12:57:43.624Z,1.00
2022-09-24T13:03:48.410Z,1.25
2022-09-24T13:09:51.803Z,1.15
2022-09-24T13:16:01.299Z,0.80
2022-09-24T13:22:06.503Z,0.98
2022-09-24T13:28:22.295Z,1.20
2022-09-24T13:34:28.101Z,1.35
2022-09-24T13:40:35.512Z,1.30
2022-09-24T13:46:43.049Z,1.30
2022-09-24T13:52:47.928Z,0.95
2022-09-24T13:58:54.313Z,1.42
2022-09-24T14:04:58.621Z,0.77
2022-09-24T14:11:16.322Z,1.00
2022-09-24T14:17:21.624Z,1.20
2022-09-24T14:23:27.695Z,0.95
2022-09-24T14:29:33.168Z,0.93
2022-09-24T14:35:39.198Z,1.40
2022-09-24T14:41:42.592Z,1.05
2022-09-24T14:47:46.040Z,1.33
2022-09-24T14:53:58.837Z,1.35
2022-09-24T15:00:02.678Z,1.05
2022-09-24T15:06:24.301Z,1.10
2022-09-24T15:12:31.842Z,1.10
2022-09-24T15:18:36.223Z,1.15
2022-09-24T15:24:39.610Z,1.38
2022-09-24T15:30:44.936Z,1.02
2022-09-24T15:36:48.803Z,0.95
2022-09-24T15:42:52.285Z,0.88
2022-09-24T15:48:57.065Z,0.80
2022-09-24T15:55:02.532Z,1.27
2022-09-24T16:01:06.069Z,0.70
2022-09-24T16:07:10.829Z,1.30
2022-09-24T16:13:14.924Z,0.90
2022-09-24T16:19:18.377Z,1.08
2022-09-24T16:25:23.139Z,1.02
2022-09-24T16:31:26.803Z,0.98
2022-09-24T16:37:30.943Z,1.30
2022-09-24T16:43:36.111Z,1.00
2022-09-24T16:49:39.663Z,1.38
2022-09-24T16:55:43.444Z,1.00
2022-09-24T17:01:51.507Z,0.98
2022-09-24T17:07:54.958Z,1.23
2022-09-24T17:13:58.380Z,1.30
2022-09-24T17:20:03.670Z,1.25
2022-09-24T17:26:07.970Z,0.80
2022-09-24T17:32:11.401Z,1.20
2022-09-24T17:38:16.390Z,1.50
2022-09-24T17:44:20.007Z,1.42
2022-09-24T17:50:24.216Z,1.38
2022-09-24T17:56:30.104Z,1.40
2022-09-24T18:02:33.636Z,1.10
2022-09-24T18:08:38.217Z,0.98
2022-09-24T18:14:44.611Z,1.77
2022-09-24T18:20:48.207Z,1.27
2022-09-24T18:26:52.289Z,1.95
2022-09-24T18:32:57.781Z,1.60
2022-09-24T18:39:01.287Z,1.70
2022-09-24T18:45:05.407Z,1.60
2022-09-24T18:51:16.022Z,1.52
2022-09-24T18:57:19.679Z,1.30
2022-09-24T19:03:24.098Z,1.25
2022-09-24T19:09:28.913Z,1.33
2022-09-24T19:15:32.389Z,1.60
2022-09-24T19:21:35.876Z,1.98
2022-09-24T19:27:40.682Z,1.30
2022-09-24T19:33:44.171Z,1.65
2022-09-24T19:39:47.895Z,1.52
2022-09-24T19:45:56.429Z,1.13
2022-09-24T19:51:59.858Z,1.35
2022-09-24T19:58:03.249Z,1.13
2022-09-24T20:04:08.627Z,1.50
2022-09-24T20:10:12.083Z,1.58
2022-09-24T20:16:16.483Z,1.70
2022-09-24T20:22:21.293Z,1.30
2022-09-24T20:28:24.685Z,1.52
2022-09-24T20:34:33.790Z,1.08
2022-09-24T20:40:42.764Z,1.33
2022-09-24T20:46:46.201Z,1.73
2022-09-24T20:52:49.581Z,1.75
2022-09-24T20:58:55.158Z,1.40
2022-09-24T21:04:58.654Z,1.55
2022-09-24T21:11:02.693Z,1.50
2022-09-24T21:17:10.343Z,1.70
2022-09-24T21:23:15.020Z,1.55
2022-09-24T21:29:20.863Z,1.60
2022-09-24T21:35:25.824Z,1.30
2022-09-24T21:41:30.552Z,1.80
2022-09-24T21:47:33.986Z,1.80
2022-09-24T21:53:38.943Z,2.03
2022-09-24T22:00:00.456Z,1.40
2022-09-24T22:06:04.521Z,1.55
2022-09-24T22:12:09.690Z,1.92
2022-09-24T22:18:13.477Z,1.80
2022-09-24T22:24:17.023Z,2.00
2022-09-24T22:30:21.866Z,1.77
2022-09-24T22:36:25.601Z,1.88
2022-09-24T22:42:29.030Z,1.60
2022-09-24T22:48:34.158Z,2.25
2022-09-24T22:54:37.661Z,2.10
2022-09-24T23:00:41.496Z,1.52
2022-09-24T23:06:46.355Z,2.00
2022-09-24T23:12:50.136Z,2.03
2022-09-24T23:18:54.443Z,2.22
2022-09-24T23:24:59.213Z,2.20
2022-09-24T23:31:03.332Z,2.15
2022-09-24T23:37:07.387Z,2.65
2022-09-24T23:43:12.258Z,2.63
2022-09-24T23:49:15.660Z,2.78
2022-09-24T23:55:19.136Z,2.30
